Time;durP1;ratioP1;P1;durP2;ratioP2;P2;SDS_P1;SDS_P2;PMS_P1;PMS_P2;Temp;Humidity;BMP_temperature;BMP_pressure;BME280_temperature;BME280_humidity;BME280_pressure;Samples;Min_cycle;Max_cycle;Signal;HPM_P1;HPM_P2
2021/08/31 00:02:10;;;;;;;8.40;6.60;;;16.40;99.90;;;;;;5075543;28;20556;-72
2021/08/31 00:04:37;;;;;;;7.93;6.00;;;16.40;99.90;;;;;;5075794;28;20458;-72
2021/08/31 00:07:04;;;;;;;8.53;6.40;;;16.40;99.90;;;;;;5074388;28;20454;-72
2021/08/31 00:09:31;;;;;;;9.23;6.60;;;16.40;99.90;;;;;;5076699;28;20463;-72
2021/08/31 00:11:58;;;;;;;7.83;6.47;;;16.40;99.90;;;;;;5075962;28;20926;-72
2021/08/31 00:14:26;;;;;;;8.73;6.20;;;16.30;99.90;;;;;;5076950;28;20454;-72
2021/08/31 00:16:52;;;;;;;9.10;6.40;;;16.30;99.90;;;;;;5077063;28;20821;-72
2021/08/31 00:19:19;;;;;;;9.63;6.67;;;16.30;99.90;;;;;;5077336;28;20516;-72
2021/08/31 00:21:46;;;;;;;7.93;6.30;;;16.30;99.90;;;;;;5077482;28;20498;-72
2021/08/31 00:24:12;;;;;;;9.57;7.13;;;16.30;99.90;;;;;;5069257;28;20462;-72
2021/08/31 00:26:39;;;;;;;8.90;6.47;;;16.30;99.90;;;;;;5054561;28;20900;-72
2021/08/31 00:29:06;;;;;;;7.03;6.13;;;16.20;99.90;;;;;;5056051;28;20764;-72
2021/08/31 00:31:34;;;;;;;7.93;6.93;;;16.20;99.90;;;;;;5059192;28;20465;-72
2021/08/31 00:34:00;;;;;;;8.97;6.63;;;16.20;99.90;;;;;;5076420;28;20470;-72
2021/08/31 00:36:27;;;;;;;9.60;6.67;;;16.20;99.90;;;;;;5076269;28;20496;-72
2021/08/31 00:38:56;;;;;;;9.97;7.50;;;16.20;99.90;;;;;;5076586;28;20454;-72
2021/08/31 00:41:23;;;;;;;9.63;6.47;;;16.20;99.90;;;;;;5075879;28;20458;-72
2021/08/31 00:43:51;;;;;;;7.63;6.27;;;16.20;99.90;;;;;;5075817;28;20540;-73
2021/08/31 00:46:19;;;;;;;8.17;6.67;;;16.20;99.90;;;;;;5076129;28;20915;-73
2021/08/31 00:48:47;;;;;;;11.73;7.20;;;16.20;99.90;;;;;;5075670;28;20465;-73
2021/08/31 00:51:14;;;;;;;9.60;6.60;;;16.20;99.90;;;;;;5075963;28;20458;-73
2021/08/31 00:53:42;;;;;;;8.37;6.50;;;16.20;99.90;;;;;;5075751;28;20482;-73
2021/08/31 00:56:09;;;;;;;11.60;6.80;;;16.10;99.90;;;;;;5075825;28;20458;-73
2021/08/31 00:58:36;;;;;;;12.27;6.90;;;16.10;99.90;;;;;;5075607;28;20485;-73
2021/08/31 01:01:03;;;;;;;9.17;6.50;;;16.10;99.90;;;;;;5075728;28;20466;-73
2021/08/31 01:03:30;;;;;;;7.93;6.90;;;16.10;99.90;;;;;;5075880;28;20458;-73
2021/08/31 01:05:59;;;;;;;7.97;6.87;;;16.10;99.90;;;;;;5075670;28;20944;-73
2021/08/31 01:08:26;;;;;;;8.83;7.00;;;16.10;99.90;;;;;;5075905;28;20455;-73
2021/08/31 01:10:54;;;;;;;8.80;6.63;;;16.10;99.90;;;;;;5076236;28;20473;-73
2021/08/31 01:13:21;;;;;;;11.83;8.00;;;16.10;99.90;;;;;;5075187;28;20474;-73
2021/08/31 01:15:49;;;;;;;11.80;7.20;;;16.10;99.90;;;;;;5075359;28;20521;-73
2021/08/31 01:18:19;;;;;;;9.27;7.07;;;16.10;99.90;;;;;;5074410;28;20465;-73
2021/08/31 01:20:46;;;;;;;7.37;6.60;;;16.10;99.90;;;;;;5074084;28;20454;-73
2021/08/31 01:23:15;;;;;;;8.00;7.00;;;16.10;99.90;;;;;;5074329;28;20461;-73
2021/08/31 01:25:44;;;;;;;8.77;7.30;;;16.00;99.90;;;;;;5074199;28;20485;-71
2021/08/31 01:28:17;;;;;;;10.90;7.27;;;16.00;99.90;;;;;;5073651;28;20462;-73
2021/08/31 01:30:45;;;;;;;9.83;6.73;;;16.00;99.90;;;;;;5073728;28;20483;-72
2021/08/31 01:33:12;;;;;;;8.67;7.23;;;16.00;99.90;;;;;;5073570;28;20481;-72
2021/08/31 01:35:38;;;;;;;9.77;6.40;;;16.00;99.90;;;;;;5073921;28;20745;-74
2021/08/31 01:38:05;;;;;;;8.27;6.63;;;16.00;99.90;;;;;;5073686;28;20461;-72
2021/08/31 01:40:32;;;;;;;11.73;8.03;;;16.10;99.90;;;;;;5073462;28;20458;-72
2021/08/31 01:43:00;;;;;;;8.77;6.90;;;16.00;99.90;;;;;;5073315;28;20492;-75
2021/08/31 01:45:27;;;;;;;10.90;7.23;;;16.00;99.90;;;;;;5073600;28;20465;-72
2021/08/31 01:47:54;;;;;;;9.80;6.50;;;16.00;99.90;;;;;;5073288;28;20454;-72
2021/08/31 01:50:20;;;;;;;11.37;7.57;;;16.00;99.90;;;;;;5073627;28;20656;-72
2021/08/31 01:52:47;;;;;;;13.20;7.50;;;16.00;99.90;;;;;;5073699;28;20479;-72
2021/08/31 01:55:14;;;;;;;8.70;7.70;;;15.90;99.90;;;;;;5073183;28;20458;-72
2021/08/31 01:57:40;;;;;;;10.50;7.50;;;15.90;99.90;;;;;;5073609;28;20773;-72
2021/08/31 02:00:10;;;;;;;8.73;7.43;;;15.90;99.90;;;;;;5073528;28;20458;-72
2021/08/31 02:02:37;;;;;;;9.33;7.10;;;15.90;99.90;;;;;;5073258;28;20462;-72
2021/08/31 02:05:05;;;;;;;9.90;7.70;;;15.90;99.90;;;;;;5073468;28;20465;-72
2021/08/31 02:07:31;;;;;;;10.67;8.30;;;15.90;99.90;;;;;;5073407;28;20458;-72
2021/08/31 02:09:58;;;;;;;11.37;7.43;;;15.90;99.90;;;;;;5073400;28;20512;-72
2021/08/31 02:12:25;;;;;;;9.23;7.57;;;15.90;99.90;;;;;;5073320;28;20478;-73
2021/08/31 02:14:51;;;;;;;9.70;7.10;;;15.90;99.90;;;;;;5072863;28;20918;-72
2021/08/31 02:17:20;;;;;;;8.70;7.80;;;15.90;99.90;;;;;;5073429;28;20458;-73
2021/08/31 02:19:46;;;;;;;11.90;8.53;;;15.90;99.90;;;;;;5073124;28;20460;-73
2021/08/31 02:22:13;;;;;;;8.57;7.40;;;15.90;99.90;;;;;;5072972;28;20454;-72
2021/08/31 02:24:40;;;;;;;11.00;7.70;;;15.90;99.90;;;;;;5073221;28;20466;-73
2021/08/31 02:27:07;;;;;;;8.90;7.17;;;15.90;99.90;;;;;;5076526;28;20458;-72
2021/08/31 02:29:34;;;;;;;9.53;8.00;;;15.80;99.90;;;;;;5078869;28;20458;-72
2021/08/31 02:32:03;;;;;;;8.17;7.37;;;15.80;99.90;;;;;;5078590;28;20454;-71
2021/08/31 02:34:31;;;;;;;9.50;7.90;;;15.80;99.90;;;;;;5080447;28;20462;-73
2021/08/31 02:36:58;;;;;;;12.07;8.20;;;15.80;99.90;;;;;;5078827;28;20516;-73
2021/08/31 02:39:24;;;;;;;10.37;8.03;;;15.70;99.90;;;;;;5078221;28;20930;-73
2021/08/31 02:41:51;;;;;;;12.33;8.40;;;15.70;99.90;;;;;;5078473;28;20466;-73
2021/08/31 02:44:18;;;;;;;9.73;7.43;;;15.70;99.90;;;;;;5078125;28;20490;-73
2021/08/31 02:46:45;;;;;;;12.57;8.90;;;15.70;99.90;;;;;;5078108;28;20918;-72
2021/08/31 02:49:11;;;;;;;7.90;7.10;;;15.80;99.90;;;;;;5078516;28;20461;-73
2021/08/31 02:51:39;;;;;;;12.10;8.00;;;15.70;99.90;;;;;;5078341;28;20461;-73
2021/08/31 02:54:06;;;;;;;10.07;8.23;;;15.80;99.90;;;;;;5078950;28;20489;-73
2021/08/31 02:56:33;;;;;;;10.07;8.00;;;15.80;99.90;;;;;;5080011;28;20925;-73
2021/08/31 02:59:00;;;;;;;11.07;8.50;;;15.80;99.90;;;;;;5079467;28;20461;-73
2021/08/31 03:01:32;;;;;;;10.13;8.00;;;15.70;99.90;;;;;;5079737;28;20809;-73
2021/08/31 03:04:01;;;;;;;9.70;8.10;;;15.70;99.90;;;;;;5079835;28;20491;-72
2021/08/31 03:06:28;;;;;;;8.67;7.77;;;15.70;99.90;;;;;;5079644;28;20453;-73
2021/08/31 03:08:56;;;;;;;11.90;8.00;;;15.70;99.90;;;;;;5079101;28;20944;-72
2021/08/31 03:11:23;;;;;;;9.60;7.77;;;15.70;99.90;;;;;;5077889;28;20568;-73
2021/08/31 03:13:50;;;;;;;10.20;8.00;;;15.70;99.90;;;;;;5077659;28;20482;-71
2021/08/31 03:16:17;;;;;;;8.43;7.63;;;15.80;99.90;;;;;;5077497;28;20458;-73
2021/08/31 03:18:43;;;;;;;8.30;7.20;;;15.70;99.90;;;;;;5077820;28;20458;-71
2021/08/31 03:21:10;;;;;;;10.53;7.70;;;15.80;99.90;;;;;;5077730;28;20477;-72
2021/08/31 03:23:37;;;;;;;10.40;8.33;;;15.70;99.90;;;;;;5077462;28;20453;-72
2021/08/31 03:26:05;;;;;;;11.00;7.67;;;15.70;99.90;;;;;;5077499;28;20457;-72
2021/08/31 03:28:32;;;;;;;8.80;7.47;;;15.70;99.90;;;;;;5077365;28;20454;-72
2021/08/31 03:30:59;;;;;;;8.63;7.63;;;15.80;99.90;;;;;;5077549;28;20458;-72
2021/08/31 03:33:25;;;;;;;10.67;7.97;;;15.80;99.90;;;;;;5077256;28;20486;-72
2021/08/31 03:35:52;;;;;;;10.60;8.00;;;15.80;99.90;;;;;;5077178;28;20462;-72
2021/08/31 03:38:19;;;;;;;9.43;8.40;;;15.80;99.90;;;;;;5077503;28;20467;-73
2021/08/31 03:40:45;;;;;;;7.63;6.87;;;15.80;99.90;;;;;;5077027;28;20458;-72
2021/08/31 03:43:13;;;;;;;8.93;7.47;;;15.80;99.90;;;;;;5076840;28;20482;-72
2021/08/31 03:45:40;;;;;;;9.87;8.20;;;15.80;99.90;;;;;;5077273;28;20454;-72
2021/08/31 03:48:07;;;;;;;10.83;7.90;;;15.80;99.90;;;;;;5077586;28;20512;-72
2021/08/31 03:50:34;;;;;;;11.93;7.83;;;15.80;99.90;;;;;;5076759;28;20462;-72
2021/08/31 03:53:00;;;;;;;16.07;8.33;;;15.80;99.90;;;;;;5077053;28;20823;-72
2021/08/31 03:55:27;;;;;;;10.03;7.93;;;15.80;99.90;;;;;;5076794;28;20458;-72
2021/08/31 03:57:54;;;;;;;9.47;8.43;;;15.70;99.90;;;;;;5076711;28;20469;-72
2021/08/31 04:00:22;;;;;;;10.07;7.37;;;15.70;99.90;;;;;;5076530;28;20915;-72
2021/08/31 04:02:49;;;;;;;10.00;7.87;;;15.60;99.90;;;;;;5077004;28;20461;-72
2021/08/31 04:05:16;;;;;;;9.43;8.43;;;15.60;99.90;;;;;;5076986;28;20458;-72
2021/08/31 04:07:45;;;;;;;8.93;7.93;;;15.60;99.90;;;;;;5077059;28;20783;-72
2021/08/31 04:10:13;;;;;;;9.97;8.47;;;15.60;99.90;;;;;;5077119;28;20973;-73
2021/08/31 04:12:39;;;;;;;9.93;8.20;;;15.60;99.90;;;;;;5077577;28;20462;-73
2021/08/31 04:15:07;;;;;;;11.60;8.07;;;15.60;99.90;;;;;;5076263;28;20469;-73
2021/08/31 04:17:35;;;;;;;9.73;7.80;;;15.60;99.90;;;;;;5076470;28;20459;-72
2021/08/31 04:20:02;;;;;;;10.63;8.20;;;15.60;99.90;;;;;;5076384;28;20789;-72
2021/08/31 04:22:28;;;;;;;14.17;8.30;;;15.60;99.90;;;;;;5076866;28;20469;-72
2021/08/31 04:24:55;;;;;;;8.60;7.70;;;15.70;99.90;;;;;;5077409;28;20523;-72
2021/08/31 04:27:22;;;;;;;9.50;8.17;;;15.70;99.90;;;;;;5076455;28;20914;-72
2021/08/31 04:29:49;;;;;;;13.10;7.73;;;15.70;99.90;;;;;;5075957;28;20493;-72
2021/08/31 04:32:16;;;;;;;10.10;8.30;;;15.70;99.90;;;;;;5076537;28;20802;-72
2021/08/31 04:34:44;;;;;;;9.93;8.37;;;15.70;99.90;;;;;;5076710;28;20953;-73
2021/08/31 04:37:11;;;;;;;13.37;7.70;;;15.60;99.90;;;;;;5077939;28;20465;-73
2021/08/31 04:39:38;;;;;;;9.60;8.20;;;15.60;99.90;;;;;;5079899;28;20468;-73
2021/08/31 04:42:06;;;;;;;8.40;6.90;;;15.60;99.90;;;;;;5078656;28;20910;-72
2021/08/31 04:44:34;;;;;;;11.47;7.43;;;15.60;99.90;;;;;;5078192;28;20438;-73
2021/08/31 04:47:02;;;;;;;7.60;6.90;;;15.60;99.90;;;;;;5077909;28;20457;-72
2021/08/31 04:49:28;;;;;;;10.50;7.30;;;15.60;99.90;;;;;;5077754;28;20533;-72
2021/08/31 04:51:57;;;;;;;9.50;7.00;;;15.60;99.90;;;;;;5077430;28;20516;-72
2021/08/31 04:54:23;;;;;;;7.77;7.00;;;15.60;99.90;;;;;;5077466;28;20474;-72
2021/08/31 04:56:50;;;;;;;8.10;7.07;;;15.60;99.90;;;;;;5077352;28;20454;-72
2021/08/31 04:59:18;;;;;;;8.00;7.20;;;15.60;99.90;;;;;;5076899;28;20476;-72
2021/08/31 05:01:45;;;;;;;9.30;7.00;;;15.60;99.90;;;;;;5075986;28;20866;-72
2021/08/31 05:04:14;;;;;;;10.77;7.43;;;15.60;99.90;;;;;;5076178;28;20450;-71
2021/08/31 05:06:41;;;;;;;12.53;7.83;;;15.60;99.90;;;;;;5075444;28;20458;-72
2021/08/31 05:09:09;;;;;;;9.50;7.70;;;15.60;99.90;;;;;;5075696;28;20454;-74
2021/08/31 05:11:36;;;;;;;11.17;7.70;;;15.60;99.90;;;;;;5075527;28;20495;-71
2021/08/31 05:14:04;;;;;;;7.37;6.60;;;15.60;99.90;;;;;;5074971;28;20489;-72
2021/08/31 05:16:31;;;;;;;9.87;7.13;;;15.60;99.90;;;;;;5075185;28;20458;-72
2021/08/31 05:18:58;;;;;;;7.80;7.00;;;15.60;99.90;;;;;;5075588;28;20461;-72
2021/08/31 05:21:25;;;;;;;11.17;7.60;;;15.60;99.90;;;;;;5074869;28;20462;-72
2021/08/31 05:23:52;;;;;;;7.60;6.80;;;15.60;99.90;;;;;;5075087;28;20926;-73
2021/08/31 05:26:20;;;;;;;10.17;7.23;;;15.50;99.90;;;;;;5075044;28;20454;-73
2021/08/31 05:28:48;;;;;;;8.73;7.07;;;15.50;99.90;;;;;;5075798;28;20879;-72
2021/08/31 05:31:15;;;;;;;12.23;7.40;;;15.50;99.90;;;;;;5074909;28;20899;-72
2021/08/31 05:33:43;;;;;;;7.77;6.97;;;15.50;99.90;;;;;;5074942;28;20488;-72
2021/08/31 05:36:10;;;;;;;9.17;7.00;;;15.50;99.90;;;;;;5075024;28;20458;-72
2021/08/31 05:38:37;;;;;;;8.03;7.23;;;15.50;99.90;;;;;;5074847;28;20465;-73
2021/08/31 05:41:03;;;;;;;8.73;7.13;;;15.50;99.90;;;;;;5074728;28;20458;-72
2021/08/31 05:43:31;;;;;;;10.13;7.00;;;15.60;99.90;;;;;;5074602;28;20543;-72
2021/08/31 05:45:58;;;;;;;10.17;7.33;;;15.60;99.90;;;;;;5074747;28;20874;-72
2021/08/31 05:48:27;;;;;;;7.90;7.10;;;15.60;99.90;;;;;;5074552;28;20469;-72
2021/08/31 05:50:54;;;;;;;11.43;8.03;;;15.70;99.90;;;;;;5074681;28;20542;-72
2021/08/31 05:53:21;;;;;;;8.90;7.40;;;15.70;99.90;;;;;;5074774;28;20478;-72
2021/08/31 05:55:48;;;;;;;9.90;7.90;;;15.70;99.90;;;;;;5074673;28;20458;-72
2021/08/31 05:58:15;;;;;;;9.23;7.50;;;15.70;99.90;;;;;;5074706;28;20450;-72
2021/08/31 06:00:43;;;;;;;8.70;7.47;;;15.70;99.90;;;;;;5076983;28;20901;-73
2021/08/31 06:03:10;;;;;;;7.70;6.80;;;15.70;99.90;;;;;;5075217;28;20465;-73
2021/08/31 06:05:38;;;;;;;8.83;7.20;;;15.70;99.90;;;;;;5074729;28;20928;-73
2021/08/31 06:08:05;;;;;;;8.60;7.63;;;15.70;99.90;;;;;;5074785;28;20490;-73
2021/08/31 06:10:32;;;;;;;7.90;6.90;;;15.70;99.90;;;;;;5074673;28;20560;-72
2021/08/31 06:13:00;;;;;;;8.47;7.60;;;15.70;99.90;;;;;;5074510;28;20906;-73
2021/08/31 06:15:27;;;;;;;10.43;7.03;;;15.70;99.90;;;;;;5074857;28;20442;-72
2021/08/31 06:17:55;;;;;;;9.67;7.30;;;15.70;99.90;;;;;;5074750;28;20792;-73
2021/08/31 06:20:22;;;;;;;7.67;6.63;;;15.70;99.90;;;;;;5074419;28;20446;-73
2021/08/31 06:22:49;;;;;;;9.43;7.90;;;15.70;99.90;;;;;;5074470;28;20506;-73
2021/08/31 06:25:16;;;;;;;8.40;7.60;;;15.70;99.90;;;;;;5074624;28;20477;-73
2021/08/31 06:27:42;;;;;;;8.77;7.07;;;15.70;99.90;;;;;;5074283;28;20469;-73
2021/08/31 06:30:10;;;;;;;8.63;7.00;;;15.80;99.90;;;;;;5074176;28;20446;-73
2021/08/31 06:32:37;;;;;;;8.70;6.77;;;15.80;99.90;;;;;;5075403;28;20601;-73
2021/08/31 06:35:05;;;;;;;8.87;7.70;;;15.80;99.90;;;;;;5074738;28;20485;-74
2021/08/31 06:37:32;;;;;;;8.57;7.37;;;15.90;99.90;;;;;;5074987;28;20794;-73
2021/08/31 06:39:59;;;;;;;9.87;8.00;;;15.90;99.90;;;;;;5074172;28;20539;-73
2021/08/31 06:42:25;;;;;;;9.70;7.17;;;15.90;99.90;;;;;;5073886;28;20950;-74
2021/08/31 06:44:52;;;;;;;8.27;6.57;;;15.90;99.90;;;;;;5073594;28;20905;-72
2021/08/31 06:47:19;;;;;;;7.67;6.87;;;15.90;99.90;;;;;;5074171;28;20785;-72
2021/08/31 06:49:46;;;;;;;8.67;7.33;;;15.90;99.90;;;;;;5073923;28;20736;-73
2021/08/31 06:52:14;;;;;;;8.37;6.80;;;15.90;99.90;;;;;;5074267;28;20520;-72
2021/08/31 06:54:40;;;;;;;15.10;11.07;;;15.80;99.90;;;;;;5074070;28;20489;-73
2021/08/31 06:57:07;;;;;;;11.23;6.97;;;15.80;99.90;;;;;;5074215;28;20459;-73
2021/08/31 06:59:34;;;;;;;10.63;6.70;;;15.90;99.90;;;;;;5074192;28;20462;-73
2021/08/31 07:02:01;;;;;;;9.00;6.70;;;16.00;99.90;;;;;;5074549;28;20454;-73
2021/08/31 07:04:27;;;;;;;8.70;7.30;;;16.10;99.90;;;;;;5074675;28;20465;-72
2021/08/31 07:06:54;;;;;;;7.50;6.47;;;16.10;99.90;;;;;;5074717;28;20803;-72
2021/08/31 07:09:22;;;;;;;8.47;6.90;;;16.20;99.90;;;;;;5074691;28;20458;-72
2021/08/31 07:11:49;;;;;;;9.33;6.60;;;16.20;99.90;;;;;;5075055;28;20800;-72
2021/08/31 07:14:15;;;;;;;8.43;6.97;;;16.30;99.90;;;;;;5077862;28;20499;-73
2021/08/31 07:16:42;;;;;;;7.67;6.07;;;16.40;99.90;;;;;;5077674;28;20454;-72
2021/08/31 07:19:10;;;;;;;8.27;6.80;;;16.50;99.90;;;;;;5077856;28;20462;-72
2021/08/31 07:21:37;;;;;;;7.47;6.37;;;16.60;99.90;;;;;;5077597;28;20469;-72
2021/08/31 07:24:04;;;;;;;7.33;6.33;;;16.70;99.90;;;;;;5077510;28;20481;-72
2021/08/31 07:26:32;;;;;;;6.93;6.00;;;16.70;99.90;;;;;;5077471;28;20454;-72
2021/08/31 07:28:59;;;;;;;7.50;6.73;;;16.80;99.90;;;;;;5077770;28;20462;-72
2021/08/31 07:31:26;;;;;;;8.77;6.43;;;16.90;99.90;;;;;;5077130;28;20461;-73
2021/08/31 07:33:52;;;;;;;7.20;6.10;;;17.00;99.90;;;;;;5077144;28;20560;-73
2021/08/31 07:36:21;;;;;;;6.53;5.77;;;17.10;99.90;;;;;;5077669;28;20465;-73
2021/08/31 07:38:48;;;;;;;9.63;6.03;;;17.10;99.90;;;;;;5077668;28;20501;-73
2021/08/31 07:41:15;;;;;;;7.77;6.17;;;17.20;99.90;;;;;;5077688;28;20469;-73
2021/08/31 07:43:44;;;;;;;8.23;6.00;;;17.30;99.90;;;;;;5077187;28;20504;-73
2021/08/31 07:46:11;;;;;;;7.60;5.97;;;17.40;99.90;;;;;;5077305;28;20794;-73
2021/08/31 07:48:38;;;;;;;7.60;5.80;;;17.50;99.90;;;;;;5077734;28;20462;-73
2021/08/31 07:51:05;;;;;;;5.63;5.03;;;17.70;99.90;;;;;;5077416;28;20837;-73
2021/08/31 07:53:31;;;;;;;7.00;6.20;;;17.80;99.90;;;;;;5078044;28;20454;-73
2021/08/31 07:55:58;;;;;;;10.20;8.23;;;17.90;99.90;;;;;;5076960;28;20478;-73
2021/08/31 07:58:25;;;;;;;8.17;6.50;;;18.00;99.90;;;;;;5077246;28;20458;-76
2021/08/31 08:00:53;;;;;;;7.40;5.77;;;18.20;99.90;;;;;;5076743;28;20462;-75
2021/08/31 08:03:20;;;;;;;9.53;6.93;;;18.30;99.90;;;;;;5076753;28;20454;-76
2021/08/31 08:05:47;;;;;;;7.47;6.63;;;18.40;99.90;;;;;;5076991;28;20458;-75
2021/08/31 08:08:13;;;;;;;6.43;5.83;;;18.40;99.90;;;;;;5076315;28;20469;-75
2021/08/31 08:10:40;;;;;;;6.97;5.80;;;18.40;99.90;;;;;;5076280;28;20454;-75
2021/08/31 08:13:07;;;;;;;7.00;6.30;;;18.40;99.90;;;;;;5076520;28;20469;-74
2021/08/31 08:15:33;;;;;;;6.27;5.47;;;18.30;99.90;;;;;;5076641;28;20474;-75
2021/08/31 08:18:03;;;;;;;14.87;7.60;;;18.30;99.90;;;;;;5076327;28;20454;-74
2021/08/31 08:20:30;;;;;;;7.43;6.17;;;18.30;99.90;;;;;;5076063;28;20992;-74
2021/08/31 08:22:57;;;;;;;7.73;5.47;;;18.30;99.90;;;;;;5076147;28;20454;-74
2021/08/31 08:25:23;;;;;;;9.17;6.07;;;18.30;99.90;;;;;;5075355;28;20458;-74
2021/08/31 08:27:50;;;;;;;7.40;6.70;;;18.40;99.90;;;;;;5076377;28;20562;-74
2021/08/31 08:30:17;;;;;;;7.73;5.50;;;18.50;99.90;;;;;;5076148;28;20481;-75
2021/08/31 08:32:44;;;;;;;7.47;5.37;;;18.60;99.90;;;;;;5076246;28;20454;-74
2021/08/31 08:35:12;;;;;;;8.80;7.60;;;18.60;99.90;;;;;;5076196;28;20478;-75
2021/08/31 08:37:39;;;;;;;6.57;5.93;;;18.60;99.90;;;;;;5076413;28;20454;-75
2021/08/31 08:40:09;;;;;;;8.27;7.47;;;18.50;99.90;;;;;;5076464;28;20458;-74
2021/08/31 08:42:37;;;;;;;6.40;5.70;;;18.50;99.90;;;;;;5076205;28;20485;-75
2021/08/31 08:45:05;;;;;;;7.97;7.17;;;18.50;99.90;;;;;;5076426;28;20450;-76
2021/08/31 08:47:32;;;;;;;7.30;6.60;;;18.40;99.90;;;;;;5076024;28;20465;-75
2021/08/31 08:49:59;;;;;;;8.70;5.80;;;18.50;99.90;;;;;;5076434;28;20776;-75
2021/08/31 08:52:27;;;;;;;8.60;5.80;;;18.50;99.90;;;;;;5076145;28;20466;-75
2021/08/31 08:54:54;;;;;;;8.07;5.53;;;18.40;99.90;;;;;;5076181;28;20514;-75
2021/08/31 08:57:27;;;;;;;7.60;6.20;;;18.50;99.90;;;;;;5076681;28;20469;-75
2021/08/31 08:59:54;;;;;;;7.10;5.90;;;18.50;99.90;;;;;;5076417;28;20512;-75
2021/08/31 09:02:35;;;;;;;6.30;5.33;;;18.70;99.90;;;;;;5075852;28;20469;-75
2021/08/31 09:05:03;;;;;;;7.27;6.57;;;18.80;99.90;;;;;;5075762;28;20512;-75
2021/08/31 09:07:35;;;;;;;6.27;5.60;;;19.00;99.90;;;;;;5076327;28;20455;-74
2021/08/31 09:10:13;;;;;;;6.37;5.77;;;19.10;99.90;;;;;;5077023;28;20450;-74
2021/08/31 09:12:41;;;;;;;5.90;5.30;;;19.30;99.90;;;;;;5077031;28;20516;-74
2021/08/31 09:15:37;;;;;;;5.83;5.30;;;19.40;99.90;;;;;;5077958;28;20474;-73
2021/08/31 09:18:19;;;;;;;5.63;5.10;;;19.50;99.90;;;;;;5042899;28;20494;-73
2021/08/31 09:21:03;;;;;;;6.67;5.97;;;19.60;99.90;;;;;;5078256;28;20454;-73
2021/08/31 09:23:33;;;;;;;7.13;5.73;;;19.50;99.90;;;;;;5078150;28;20478;-73
2021/08/31 09:26:06;;;;;;;7.63;5.80;;;19.50;99.90;;;;;;5078262;28;20450;-74
2021/08/31 09:28:36;;;;;;;6.60;5.90;;;19.50;99.90;;;;;;5078321;28;20443;-73
2021/08/31 09:31:06;;;;;;;8.23;6.20;;;19.50;99.90;;;;;;5076626;28;20464;-73
2021/08/31 09:33:34;;;;;;;7.20;5.87;;;19.50;99.90;;;;;;5076834;28;20449;-73
2021/08/31 09:36:11;;;;;;;6.13;5.53;;;19.40;99.90;;;;;;5076293;28;20486;-74
2021/08/31 09:38:45;;;;;;;6.43;5.70;;;19.40;99.90;;;;;;5076866;28;20442;-73
2021/08/31 09:41:32;;;;;;;7.20;6.50;;;19.30;99.90;;;;;;5077134;28;20443;-74
2021/08/31 09:44:01;;;;;;;7.83;6.50;;;19.30;99.90;;;;;;5076983;28;20485;-74
2021/08/31 09:46:50;;;;;;;6.80;6.10;;;19.30;99.90;;;;;;5075744;28;20473;-73
2021/08/31 09:49:21;;;;;;;7.20;6.50;;;19.30;99.90;;;;;;5077990;28;20445;-73
2021/08/31 09:52:16;;;;;;;7.40;6.63;;;19.30;99.90;;;;;;5076717;28;20466;-73
2021/08/31 09:54:46;;;;;;;9.93;7.90;;;19.40;99.90;;;;;;5043282;28;20489;-73
2021/08/31 09:57:26;;;;;;;6.80;5.80;;;19.50;99.90;;;;;;5077821;28;20462;-73
2021/08/31 09:59:54;;;;;;;7.07;6.37;;;19.60;99.90;;;;;;5078655;28;20810;-73
2021/08/31 10:02:21;;;;;;;8.43;6.50;;;19.70;99.90;;;;;;5078736;28;20454;-73
2021/08/31 10:04:48;;;;;;;7.23;6.17;;;19.70;99.90;;;;;;5077047;28;20851;-73
2021/08/31 10:07:17;;;;;;;5.67;5.17;;;19.80;99.90;;;;;;5077896;28;20789;-73
2021/08/31 10:09:46;;;;;;;6.80;6.07;;;19.90;99.90;;;;;;5076533;28;20530;-73
2021/08/31 10:12:17;;;;;;;6.30;5.70;;;20.00;99.90;;;;;;5074783;28;20458;-73
2021/08/31 10:14:50;;;;;;;6.13;5.40;;;19.90;99.90;;;;;;5075123;28;20485;-74
2021/08/31 10:17:19;;;;;;;6.50;5.77;;;19.90;99.90;;;;;;5075138;28;20636;-74
2021/08/31 10:19:47;;;;;;;7.00;5.30;;;19.90;99.90;;;;;;5075013;28;20454;-74
2021/08/31 10:22:18;;;;;;;6.20;5.60;;;19.90;99.90;;;;;;5075041;28;20796;-75
2021/08/31 10:24:47;;;;;;;6.40;5.80;;;19.90;99.90;;;;;;5075749;28;20449;-74
2021/08/31 10:27:36;;;;;;;7.20;6.03;;;19.90;99.90;;;;;;5075644;28;20953;-74
2021/08/31 10:30:27;;;;;;;8.87;6.17;;;20.00;99.90;;;;;;5074978;28;20435;-75
2021/08/31 10:32:56;;;;;;;6.30;5.80;;;20.00;99.90;;;;;;5067579;28;20481;-74
2021/08/31 10:35:52;;;;;;;7.27;6.00;;;20.10;99.90;;;;;;5074453;28;20489;-74
2021/08/31 10:38:42;;;;;;;8.23;6.03;;;20.10;99.90;;;;;;5074642;28;20458;-74
2021/08/31 10:44:44;;;;;;;5.80;5.20;;;19.90;99.90;;;;;;5073712;28;20474;-74
2021/08/31 10:47:18;;;;;;;6.73;5.57;;;20.00;99.90;;;;;;5075633;28;20434;-74
2021/08/31 10:50:17;;;;;;;7.40;5.80;;;20.10;99.90;;;;;;5079088;28;20477;-75
2021/08/31 10:53:04;;;;;;;8.40;5.80;;;20.20;99.90;;;;;;5078472;28;20525;-74
2021/08/31 10:55:41;;;;;;;9.30;8.30;;;20.10;99.90;;;;;;5077624;28;20500;-73
2021/08/31 10:58:11;;;;;;;8.33;6.90;;;20.20;99.90;;;;;;5077865;28;20442;-73
2021/08/31 11:00:49;;;;;;;5.93;5.33;;;20.20;99.90;;;;;;5078421;28;20465;-73
2021/08/31 11:03:35;;;;;;;6.23;5.60;;;20.40;99.90;;;;;;5078380;28;20462;-73
2021/08/31 11:06:31;;;;;;;6.97;5.40;;;20.50;99.90;;;;;;5078581;28;20438;-73
2021/08/31 11:09:18;;;;;;;6.40;5.80;;;20.70;99.90;;;;;;5077892;28;20906;-73
2021/08/31 11:11:59;;;;;;;5.90;5.30;;;20.80;99.90;;;;;;5080365;28;20515;-72
2021/08/31 11:14:40;;;;;;;10.87;6.10;;;20.90;99.90;;;;;;5077664;28;20905;-74
2021/08/31 11:17:07;;;;;;;5.90;5.30;;;21.00;99.90;;;;;;5079797;28;20801;-73
2021/08/31 11:19:34;;;;;;;7.20;5.47;;;21.20;99.90;;;;;;5077396;28;20515;-73
2021/08/31 11:22:01;;;;;;;5.47;4.97;;;21.40;99.90;;;;;;5077786;28;20461;-73
2021/08/31 11:24:30;;;;;;;6.00;5.27;;;21.50;99.90;;;;;;5076987;28;20458;-73
2021/08/31 11:27:03;;;;;;;5.33;4.80;;;21.50;99.90;;;;;;5077498;28;20512;-73
2021/08/31 11:29:30;;;;;;;7.23;5.53;;;21.60;99.90;;;;;;5077457;28;20454;-73
2021/08/31 11:32:04;;;;;;;6.03;5.53;;;21.70;99.90;;;;;;5077551;28;20460;-73
2021/08/31 11:34:30;;;;;;;5.83;5.23;;;21.70;99.90;;;;;;5077121;28;20453;-73
2021/08/31 11:37:06;;;;;;;5.13;4.63;;;21.70;99.90;;;;;;5077350;28;20489;-74
2021/08/31 11:39:33;;;;;;;5.67;5.17;;;21.60;99.90;;;;;;5076714;28;20469;-74
2021/08/31 11:42:03;;;;;;;6.00;5.40;;;21.50;99.90;;;;;;5077111;28;20473;-73
2021/08/31 11:44:32;;;;;;;5.40;4.90;;;21.50;99.90;;;;;;5077058;28;20450;-73
2021/08/31 11:47:01;;;;;;;6.07;5.47;;;21.60;99.90;;;;;;5077197;28;20751;-73
2021/08/31 11:49:29;;;;;;;5.60;5.07;;;21.70;99.90;;;;;;5077008;28;20511;-72
2021/08/31 11:52:06;;;;;;;5.20;4.70;;;21.60;99.90;;;;;;5077387;28;20466;-73
2021/08/31 11:54:35;;;;;;;5.80;5.27;;;21.50;99.90;;;;;;5077012;28;20450;-73
2021/08/31 11:57:06;;;;;;;5.27;4.77;;;21.40;99.90;;;;;;5076448;28;20953;-72
2021/08/31 11:59:42;;;;;;;5.40;4.30;;;21.40;99.90;;;;;;5076412;28;20438;-74
2021/08/31 12:02:19;;;;;;;5.03;4.53;;;21.50;99.90;;;;;;5076888;28;20824;-73
2021/08/31 12:05:04;;;;;;;5.13;4.63;;;21.60;99.90;;;;;;5077343;28;20446;-73
2021/08/31 12:07:36;;;;;;;4.70;4.30;;;21.60;99.90;;;;;;5076528;28;20466;-73
2021/08/31 12:10:05;;;;;;;4.90;4.50;;;21.70;99.90;;;;;;5076416;28;20461;-74
2021/08/31 12:12:37;;;;;;;5.47;4.90;;;21.90;99.90;;;;;;5076489;28;20459;-74
2021/08/31 12:15:04;;;;;;;5.03;4.53;;;21.90;99.90;;;;;;5076981;28;20462;-75
2021/08/31 12:17:35;;;;;;;5.43;4.80;;;22.20;99.90;;;;;;5076516;28;20464;-74
2021/08/31 12:20:09;;;;;;;5.37;4.43;;;22.50;99.90;;;;;;5076827;28;20439;-73
2021/08/31 12:22:37;;;;;;;6.10;4.93;;;23.00;99.90;;;;;;5076287;28;20441;-73
2021/08/31 12:25:05;;;;;;;5.63;4.73;;;23.40;99.90;;;;;;5076110;28;20523;-74
2021/08/31 12:27:38;;;;;;;4.40;3.90;;;23.60;99.90;;;;;;5075918;28;20455;-73
2021/08/31 12:30:07;;;;;;;4.80;4.40;;;24.00;99.90;;;;;;5076302;28;20527;-74
2021/08/31 12:32:36;;;;;;;4.60;4.20;;;24.30;99.90;;;;;;5075756;28;20466;-74
2021/08/31 12:35:25;;;;;;;4.00;3.60;;;24.50;99.90;;;;;;5076353;28;20463;-73
2021/08/31 12:38:12;;;;;;;5.20;3.70;;;24.90;99.90;;;;;;5076467;28;20525;-73
2021/08/31 12:40:59;;;;;;;4.33;3.93;;;25.20;99.90;;;;;;5075370;28;20911;-74
2021/08/31 12:43:29;;;;;;;5.50;4.37;;;25.00;99.90;;;;;;5075581;28;20938;-73
2021/08/31 12:45:59;;;;;;;4.73;3.60;;;24.60;99.90;;;;;;5056056;28;20896;-73
2021/08/31 12:48:40;;;;;;;4.70;4.30;;;24.10;99.90;;;;;;5055595;28;20450;-73
2021/08/31 12:51:08;;;;;;;5.20;4.70;;;23.60;99.90;;;;;;5056807;28;20459;-74
2021/08/31 12:53:36;;;;;;;5.30;4.80;;;23.20;99.90;;;;;;5075998;28;20531;-73
2021/08/31 12:56:06;;;;;;;5.17;3.90;;;23.30;99.90;;;;;;5075986;28;20777;-73
2021/08/31 12:58:33;;;;;;;6.03;5.40;;;23.60;99.90;;;;;;5075346;28;20465;-73
2021/08/31 13:01:13;;;;;;;8.50;6.53;;;23.50;99.90;;;;;;5066957;28;20478;-73